createdAt,value
2022-08-25T00:00:50.072Z,17.96
2022-08-25T00:01:50.038Z,17.95
2022-08-25T00:02:55.950Z,17.95
2022-08-25T00:03:51.010Z,17.94
2022-08-25T00:04:53.897Z,17.94
2022-08-25T00:05:50.046Z,17.94
2022-08-25T00:06:49.974Z,17.94
2022-08-25T00:07:49.961Z,17.94
2022-08-25T00:08:49.949Z,17.89
2022-08-25T00:09:49.931Z,17.89
2022-08-25T00:11:00.345Z,17.87
2022-08-25T00:11:50.908Z,17.86
2022-08-25T00:12:49.892Z,17.86
2022-08-25T00:13:49.888Z,17.84
2022-08-25T00:14:49.869Z,17.83
2022-08-25T00:15:49.898Z,17.81
2022-08-25T00:16:49.846Z,17.80
2022-08-25T00:17:49.821Z,17.80
2022-08-25T00:18:49.811Z,17.79
2022-08-25T00:19:49.823Z,17.79
2022-08-25T00:20:49.802Z,17.79
2022-08-25T00:21:49.769Z,17.77
2022-08-25T00:22:49.762Z,17.77
2022-08-25T00:23:49.743Z,17.76
2022-08-25T00:24:49.734Z,17.74
2022-08-25T00:25:49.732Z,17.74
2022-08-25T00:26:49.715Z,17.71
2022-08-25T00:27:49.691Z,17.71
2022-08-25T00:28:49.691Z,17.71
2022-08-25T00:29:49.660Z,17.71
2022-08-25T00:30:49.791Z,17.71
2022-08-25T00:31:49.645Z,17.68
2022-08-25T00:32:55.281Z,17.65
2022-08-25T00:33:50.614Z,17.65
2022-08-25T00:34:49.604Z,17.66
2022-08-25T00:35:49.597Z,17.65
2022-08-25T00:36:49.574Z,17.66
2022-08-25T00:37:49.553Z,17.65
2022-08-25T00:38:49.556Z,17.63
2022-08-25T00:39:49.562Z,17.65
2022-08-25T00:40:49.535Z,17.63
2022-08-25T00:41:49.505Z,17.62
2022-08-25T00:42:49.495Z,17.60
2022-08-25T00:43:49.487Z,17.62
2022-08-25T00:44:49.462Z,17.63
2022-08-25T00:45:49.493Z,17.63
2022-08-25T00:46:49.444Z,17.62
2022-08-25T00:47:49.425Z,17.60
2022-08-25T00:48:49.417Z,17.58
2022-08-25T00:49:49.400Z,17.54
2022-08-25T00:50:49.394Z,17.54
2022-08-25T00:51:49.373Z,17.54
2022-08-25T00:52:49.361Z,17.53
2022-08-25T00:53:49.347Z,17.51
2022-08-25T00:54:49.325Z,17.49
2022-08-25T00:55:49.331Z,17.47
2022-08-25T00:56:49.304Z,17.46
2022-08-25T00:57:49.285Z,17.46
2022-08-25T00:58:49.279Z,17.45
2022-08-25T00:59:49.282Z,17.42
2022-08-25T01:00:49.245Z,17.43
2022-08-25T01:01:49.303Z,17.42
2022-08-25T01:02:49.281Z,17.40
2022-08-25T01:03:49.213Z,17.40
2022-08-25T01:04:49.368Z,17.38
2022-08-25T01:05:49.191Z,17.36
2022-08-25T01:06:49.168Z,17.35
2022-08-25T01:07:49.154Z,17.33
2022-08-25T01:08:49.144Z,17.33
2022-08-25T01:09:49.148Z,17.32
2022-08-25T01:10:49.114Z,17.32
2022-08-25T01:11:49.109Z,17.28
2022-08-25T01:12:49.086Z,17.27
2022-08-25T01:13:49.076Z,17.25
2022-08-25T01:14:49.071Z,17.22
2022-08-25T01:15:49.118Z,17.24
2022-08-25T01:16:51.087Z,17.25
2022-08-25T01:17:49.018Z,17.24
2022-08-25T01:18:49.003Z,17.24
2022-08-25T01:19:49.014Z,17.21
2022-08-25T01:20:48.976Z,17.22
2022-08-25T01:21:48.977Z,17.20
2022-08-25T01:22:55.093Z,17.22
2022-08-25T01:23:49.947Z,17.21
2022-08-25T01:24:48.938Z,17.22
2022-08-25T01:25:48.915Z,17.25
2022-08-25T01:26:48.898Z,17.25
2022-08-25T01:27:48.886Z,17.24
2022-08-25T01:28:48.874Z,17.22
2022-08-25T01:29:48.875Z,17.21
2022-08-25T01:30:48.964Z,17.22
2022-08-25T01:31:48.838Z,17.21
2022-08-25T01:32:48.815Z,17.22
2022-08-25T01:33:48.805Z,17.21
2022-08-25T01:34:48.799Z,17.21
2022-08-25T01:35:48.777Z,17.22
2022-08-25T01:36:48.768Z,17.22
2022-08-25T01:37:48.753Z,17.22
2022-08-25T01:38:48.735Z,17.21
2022-08-25T01:39:48.785Z,17.21
2022-08-25T01:40:48.719Z,17.20
2022-08-25T01:41:48.706Z,17.18
2022-08-25T01:42:48.678Z,17.17
2022-08-25T01:43:48.665Z,17.17
2022-08-25T01:44:48.666Z,17.17
2022-08-25T01:45:48.703Z,17.17
2022-08-25T01:46:48.636Z,17.15
2022-08-25T01:47:48.645Z,17.15
2022-08-25T01:48:48.613Z,17.15
2022-08-25T01:49:48.589Z,17.15
2022-08-25T01:50:48.574Z,17.15
2022-08-25T01:51:48.588Z,17.14
2022-08-25T01:52:48.548Z,17.10
2022-08-25T01:53:48.552Z,17.14
2022-08-25T01:54:48.522Z,17.10
2022-08-25T01:55:48.504Z,17.07
2022-08-25T01:56:48.491Z,17.03
2022-08-25T01:57:48.486Z,17.02
2022-08-25T01:58:48.474Z,17.02
2022-08-25T01:59:48.463Z,17.00
2022-08-25T02:00:48.434Z,16.99
2022-08-25T02:01:48.477Z,16.98
2022-08-25T02:02:52.290Z,16.96
2022-08-25T02:03:49.414Z,16.99
2022-08-25T02:04:48.379Z,16.99
2022-08-25T02:05:48.786Z,16.98
2022-08-25T02:06:48.368Z,16.99
2022-08-25T02:07:48.346Z,16.98
2022-08-25T02:08:48.344Z,16.96
2022-08-25T02:09:48.314Z,16.96
2022-08-25T02:10:48.306Z,16.95
2022-08-25T02:11:48.295Z,16.92
2022-08-25T02:12:48.283Z,16.91
2022-08-25T02:13:48.278Z,16.92
2022-08-25T02:14:48.245Z,16.90
2022-08-25T02:15:48.239Z,16.90
2022-08-25T02:16:48.275Z,16.90
2022-08-25T02:17:48.216Z,16.88
2022-08-25T02:18:48.205Z,16.88
2022-08-25T02:19:48.186Z,16.84
2022-08-25T02:20:48.172Z,16.85
2022-08-25T02:21:48.163Z,16.84
2022-08-25T02:22:56.569Z,16.82
2022-08-25T02:23:49.149Z,16.84
2022-08-25T02:24:48.113Z,16.81
2022-08-25T02:25:48.107Z,16.81
2022-08-25T02:26:48.086Z,16.78
2022-08-25T02:27:48.095Z,16.77
2022-08-25T02:28:48.065Z,16.75
2022-08-25T02:29:48.047Z,16.75
2022-08-25T02:30:48.096Z,16.73
2022-08-25T02:31:48.030Z,16.75
2022-08-25T02:32:48.027Z,16.73
2022-08-25T02:33:47.997Z,16.73
2022-08-25T02:34:47.983Z,16.72
2022-08-25T02:35:47.975Z,16.69
2022-08-25T02:36:47.964Z,16.69
2022-08-25T02:37:47.957Z,16.69
2022-08-25T02:38:47.928Z,16.67
2022-08-25T02:39:48.011Z,16.66
2022-08-25T02:40:47.907Z,16.67
2022-08-25T02:41:47.900Z,16.67
2022-08-25T02:42:47.885Z,16.67
2022-08-25T02:43:47.863Z,16.67
2022-08-25T02:44:47.845Z,16.67
2022-08-25T02:45:47.879Z,16.67
2022-08-25T02:46:47.824Z,16.67
2022-08-25T02:47:47.822Z,16.67
2022-08-25T02:48:47.794Z,16.65
2022-08-25T02:49:47.795Z,16.66
2022-08-25T02:50:47.764Z,16.66
2022-08-25T02:51:47.766Z,16.65
2022-08-25T02:52:47.755Z,16.62
2022-08-25T02:53:47.739Z,16.60
2022-08-25T02:54:47.706Z,16.59
2022-08-25T02:55:47.697Z,16.57
2022-08-25T02:56:47.686Z,16.55
2022-08-25T02:57:47.686Z,16.54
2022-08-25T02:58:47.670Z,16.54
2022-08-25T02:59:47.647Z,16.54
2022-08-25T03:00:47.663Z,16.55
2022-08-25T03:01:47.628Z,16.55
2022-08-25T03:02:47.613Z,16.55
2022-08-25T03:03:47.637Z,16.55
2022-08-25T03:04:47.645Z,16.54
2022-08-25T03:05:47.568Z,16.52
2022-08-25T03:06:47.552Z,16.52
2022-08-25T03:07:47.545Z,16.50
2022-08-25T03:08:47.524Z,16.50
2022-08-25T03:09:47.514Z,16.48
2022-08-25T03:10:47.496Z,16.47
2022-08-25T03:11:47.490Z,16.47
2022-08-25T03:12:47.486Z,16.48
2022-08-25T03:13:47.457Z,16.47
2022-08-25T03:14:47.437Z,16.45
2022-08-25T03:15:47.437Z,16.45
2022-08-25T03:16:47.449Z,16.44
2022-08-25T03:17:47.417Z,16.45
2022-08-25T03:18:47.388Z,16.45
2022-08-25T03:19:47.376Z,16.45
2022-08-25T03:20:47.355Z,16.44
2022-08-25T03:21:47.369Z,16.45
2022-08-25T03:22:47.364Z,16.42
2022-08-25T03:23:47.325Z,16.41
2022-08-25T03:24:47.308Z,16.37
2022-08-25T03:25:47.302Z,16.37
2022-08-25T03:26:47.282Z,16.36
2022-08-25T03:27:47.290Z,16.33
2022-08-25T03:28:47.255Z,16.33
2022-08-25T03:29:47.240Z,16.33
2022-08-25T03:30:47.228Z,16.33
2022-08-25T03:31:48.246Z,16.34
2022-08-25T03:32:47.222Z,16.32
2022-08-25T03:33:47.186Z,16.29
2022-08-25T03:34:47.166Z,16.30
2022-08-25T03:35:47.157Z,16.27
2022-08-25T03:36:47.149Z,16.29
2022-08-25T03:37:47.153Z,16.29
2022-08-25T03:38:47.116Z,16.29
2022-08-25T03:39:47.141Z,16.27
2022-08-25T03:40:47.085Z,16.26
2022-08-25T03:41:47.080Z,16.25
2022-08-25T03:42:47.073Z,16.23
2022-08-25T03:43:48.233Z,16.25
2022-08-25T03:44:47.038Z,16.23
2022-08-25T03:45:47.080Z,16.25
2022-08-25T03:46:47.014Z,16.25
2022-08-25T03:47:47.014Z,16.22
2022-08-25T03:48:46.993Z,16.18
2022-08-25T03:49:46.966Z,16.18
2022-08-25T03:50:51.411Z,16.17
2022-08-25T03:51:47.971Z,16.17
2022-08-25T03:52:46.945Z,16.17
2022-08-25T03:53:46.926Z,16.16
2022-08-25T03:54:46.897Z,16.14
2022-08-25T03:55:46.885Z,16.14
2022-08-25T03:56:46.873Z,16.14
2022-08-25T03:57:46.879Z,16.14
2022-08-25T03:58:46.845Z,16.11
2022-08-25T03:59:46.834Z,16.11
2022-08-25T04:00:46.895Z,16.11
2022-08-25T04:01:50.217Z,16.10
2022-08-25T04:02:47.871Z,16.10
2022-08-25T04:03:46.785Z,16.10
2022-08-25T04:04:46.764Z,16.10
2022-08-25T04:05:46.753Z,16.11
2022-08-25T04:06:46.734Z,16.13
2022-08-25T04:07:46.737Z,16.13
2022-08-25T04:08:46.705Z,16.13
2022-08-25T04:09:46.705Z,16.11
2022-08-25T04:10:46.684Z,16.13
2022-08-25T04:11:46.673Z,16.10
2022-08-25T04:12:46.683Z,16.10
2022-08-25T04:13:46.651Z,16.10
2022-08-25T04:14:46.634Z,16.10
2022-08-25T04:15:46.622Z,16.10
2022-08-25T04:16:46.640Z,16.11
2022-08-25T04:17:46.606Z,16.11
2022-08-25T04:18:46.574Z,16.10
2022-08-25T04:19:46.568Z,16.11
2022-08-25T04:20:46.918Z,16.11
2022-08-25T04:21:46.542Z,16.11
2022-08-25T04:22:46.533Z,16.14
2022-08-25T04:23:46.515Z,16.13
2022-08-25T04:24:46.495Z,16.13
2022-08-25T04:25:46.494Z,16.16
2022-08-25T04:26:46.466Z,16.16
2022-08-25T04:27:46.463Z,16.17
2022-08-25T04:28:46.447Z,16.18
2022-08-25T04:29:46.425Z,16.18
2022-08-25T04:30:49.158Z,16.22
2022-08-25T04:31:48.725Z,16.22
2022-08-25T04:32:46.394Z,16.25
2022-08-25T04:33:46.377Z,16.23
2022-08-25T04:34:46.356Z,16.27
2022-08-25T04:35:46.353Z,16.32
2022-08-25T04:36:46.326Z,16.34
2022-08-25T04:37:47.324Z,16.33
2022-08-25T04:38:46.307Z,16.34
2022-08-25T04:39:46.352Z,16.36
2022-08-25T04:40:46.277Z,16.34
2022-08-25T04:41:46.266Z,16.37
2022-08-25T04:42:48.099Z,16.40
2022-08-25T04:43:46.251Z,16.42
2022-08-25T04:44:46.219Z,16.45
2022-08-25T04:45:46.249Z,16.47
2022-08-25T04:46:46.207Z,16.51
2022-08-25T04:47:46.207Z,16.54
2022-08-25T04:48:46.177Z,16.55
2022-08-25T04:49:46.166Z,16.57
2022-08-25T04:50:46.136Z,16.62
2022-08-25T04:51:46.140Z,16.63
2022-08-25T04:52:46.125Z,16.66
2022-08-25T04:53:46.107Z,16.70
2022-08-25T04:54:46.091Z,16.73
2022-08-25T04:55:46.089Z,16.78
2022-08-25T04:56:46.075Z,16.82
2022-08-25T04:57:46.065Z,16.85
2022-08-25T04:58:46.197Z,16.88
2022-08-25T04:59:46.028Z,16.92
2022-08-25T05:00:48.846Z,16.98
2022-08-25T05:01:45.998Z,17.00
2022-08-25T05:02:45.988Z,17.05
2022-08-25T05:03:45.989Z,17.10
2022-08-25T05:04:46.079Z,17.15
2022-08-25T05:05:45.960Z,17.20
2022-08-25T05:06:45.973Z,17.24
2022-08-25T05:07:45.945Z,17.28
2022-08-25T05:08:46.302Z,17.33
2022-08-25T05:09:45.885Z,17.36
2022-08-25T05:10:45.908Z,17.40
2022-08-25T05:11:45.881Z,17.46
2022-08-25T05:12:45.865Z,17.49
2022-08-25T05:13:51.150Z,17.58
2022-08-25T05:14:46.824Z,17.63
2022-08-25T05:15:45.797Z,17.68
2022-08-25T05:16:45.872Z,17.76
2022-08-25T05:17:45.776Z,17.80
2022-08-25T05:18:45.772Z,17.87
2022-08-25T05:19:45.756Z,17.98
2022-08-25T05:20:45.747Z,18.07
2022-08-25T05:21:45.975Z,18.21
2022-08-25T05:22:45.723Z,18.42
2022-08-25T05:23:45.710Z,18.68
2022-08-25T05:24:45.696Z,18.93
2022-08-25T05:25:45.682Z,19.21
2022-08-25T05:26:45.692Z,19.50
2022-08-25T05:27:45.648Z,19.79
2022-08-25T05:28:45.648Z,20.07
2022-08-25T05:29:45.617Z,20.30
2022-08-25T05:30:45.608Z,20.57
2022-08-25T05:31:50.011Z,20.87
2022-08-25T05:32:47.135Z,21.15
2022-08-25T05:33:45.566Z,21.42
2022-08-25T05:34:45.570Z,21.70
2022-08-25T05:35:45.536Z,22.01
2022-08-25T05:36:45.537Z,22.23
2022-08-25T05:37:45.506Z,22.51
2022-08-25T05:38:45.515Z,22.76
2022-08-25T05:39:45.549Z,23.06
2022-08-25T05:40:45.476Z,23.35
2022-08-25T05:41:45.466Z,23.60
2022-08-25T05:42:45.447Z,23.72
2022-08-25T05:43:45.439Z,23.69
2022-08-25T05:44:45.435Z,23.63
2022-08-25T05:45:45.434Z,23.62
2022-08-25T05:46:45.425Z,23.47
2022-08-25T05:47:45.379Z,23.37
2022-08-25T05:48:45.369Z,23.29
2022-08-25T05:49:45.369Z,23.37
2022-08-25T05:50:45.340Z,23.47
2022-08-25T05:51:45.348Z,23.49
2022-08-25T05:52:45.308Z,23.53
2022-08-25T05:53:45.308Z,23.56
2022-08-25T05:54:45.319Z,23.57
2022-08-25T05:55:45.282Z,23.54
2022-08-25T05:56:45.291Z,23.50
2022-08-25T05:57:45.238Z,23.47
2022-08-25T05:58:45.241Z,23.42
2022-08-25T05:59:45.221Z,23.41
2022-08-25T06:00:45.256Z,23.47
2022-08-25T06:01:45.506Z,23.60
2022-08-25T06:02:45.182Z,23.84
2022-08-25T06:03:45.185Z,24.06
2022-08-25T06:04:57.174Z,24.33
2022-08-25T06:05:45.143Z,24.61
2022-08-25T06:06:45.148Z,24.90
2022-08-25T06:07:45.106Z,25.14
2022-08-25T06:08:45.106Z,25.42
2022-08-25T06:09:45.096Z,25.69
2022-08-25T06:10:45.074Z,25.91
2022-08-25T06:11:45.075Z,26.19
2022-08-25T06:12:45.066Z,26.49
2022-08-25T06:13:45.038Z,26.72
2022-08-25T06:14:45.034Z,26.98
2022-08-25T06:15:45.041Z,27.23
2022-08-25T06:16:45.024Z,27.48
2022-08-25T06:17:44.998Z,27.63
2022-08-25T06:18:44.980Z,27.80
2022-08-25T06:19:44.976Z,27.93
2022-08-25T06:20:44.958Z,28.06
2022-08-25T06:21:44.945Z,28.20
2022-08-25T06:22:44.917Z,28.32
2022-08-25T06:23:44.902Z,28.46
2022-08-25T06:24:44.906Z,28.65
2022-08-25T06:25:44.909Z,28.88
2022-08-25T06:26:44.878Z,29.08
2022-08-25T06:27:44.915Z,29.35
2022-08-25T06:28:44.848Z,29.62
2022-08-25T06:29:44.828Z,29.79
2022-08-25T06:30:44.809Z,29.97
2022-08-25T06:31:44.902Z,30.16
2022-08-25T06:32:44.815Z,30.28
2022-08-25T06:33:44.775Z,30.30
2022-08-25T06:34:44.768Z,30.40
2022-08-25T06:35:44.764Z,30.61
2022-08-25T06:36:44.751Z,30.75
2022-08-25T06:37:44.739Z,30.86
2022-08-25T06:38:44.725Z,30.98
2022-08-25T06:39:44.794Z,31.05
2022-08-25T06:40:44.713Z,31.07
2022-08-25T06:41:44.682Z,31.15
2022-08-25T06:42:44.670Z,31.16
2022-08-25T06:43:49.006Z,31.25
2022-08-25T06:44:45.645Z,31.40
2022-08-25T06:45:44.630Z,31.52
2022-08-25T06:46:44.722Z,31.46
2022-08-25T06:47:45.471Z,31.45
2022-08-25T06:48:44.580Z,31.64
2022-08-25T06:49:44.570Z,31.88
2022-08-25T06:50:44.571Z,32.14
2022-08-25T06:51:44.551Z,32.36
2022-08-25T06:52:44.532Z,32.44
2022-08-25T06:53:44.522Z,32.54
2022-08-25T06:54:44.503Z,32.68
2022-08-25T06:55:44.497Z,32.65
2022-08-25T06:56:44.492Z,32.73
2022-08-25T06:57:44.463Z,32.78
2022-08-25T06:58:44.474Z,32.76
2022-08-25T06:59:44.450Z,32.78
2022-08-25T07:00:44.485Z,32.80
2022-08-25T07:01:44.613Z,33.02
2022-08-25T07:02:44.429Z,33.29
2022-08-25T07:03:44.392Z,33.47
2022-08-25T07:04:44.374Z,33.43
2022-08-25T07:05:44.373Z,33.45
2022-08-25T07:06:44.345Z,33.38
2022-08-25T07:07:44.404Z,33.38
2022-08-25T07:08:44.325Z,33.17
2022-08-25T07:09:44.318Z,33.05
2022-08-25T07:10:44.311Z,32.72
2022-08-25T07:11:44.285Z,32.81
2022-08-25T07:12:44.275Z,32.99
2022-08-25T07:13:44.265Z,33.12
2022-08-25T07:14:58.146Z,33.40
2022-08-25T07:15:45.294Z,33.55
2022-08-25T07:16:48.736Z,33.33
2022-08-25T07:17:45.251Z,32.87
2022-08-25T07:18:44.315Z,32.46
2022-08-25T07:19:44.178Z,32.50
2022-08-25T07:20:44.189Z,32.27
2022-08-25T07:21:44.158Z,32.02
2022-08-25T07:22:44.159Z,31.64
2022-08-25T07:23:44.148Z,31.72
2022-08-25T07:24:44.133Z,32.09
2022-08-25T07:25:44.118Z,32.58
2022-08-25T07:26:44.143Z,32.99
2022-08-25T07:27:44.090Z,33.17
2022-08-25T07:28:47.331Z,33.07
2022-08-25T07:29:44.054Z,33.06
2022-08-25T07:30:44.062Z,33.03
2022-08-25T07:31:44.101Z,33.24
2022-08-25T07:32:44.030Z,33.55
2022-08-25T07:33:44.019Z,33.70
2022-08-25T07:34:44.106Z,33.74
2022-08-25T07:35:43.994Z,33.84
2022-08-25T07:36:43.993Z,34.06
2022-08-25T07:37:49.124Z,34.30
2022-08-25T07:38:44.943Z,34.46
2022-08-25T07:39:43.931Z,34.48
2022-08-25T07:40:43.954Z,34.45
2022-08-25T07:41:43.915Z,34.52
2022-08-25T07:42:43.903Z,34.60
2022-08-25T07:43:43.895Z,34.56
2022-08-25T07:44:43.889Z,34.33
2022-08-25T07:45:49.205Z,34.24
2022-08-25T07:46:44.894Z,34.27
2022-08-25T07:47:43.823Z,34.43
2022-08-25T07:48:43.829Z,34.63
2022-08-25T07:49:44.813Z,34.86
2022-08-25T07:50:43.792Z,34.78
2022-08-25T07:51:44.203Z,34.36
2022-08-25T07:52:44.782Z,34.26
2022-08-25T07:53:44.753Z,34.14
2022-08-25T07:54:43.766Z,34.00
2022-08-25T07:55:45.086Z,33.50
2022-08-25T07:56:43.714Z,33.34
2022-08-25T07:57:43.706Z,33.06
2022-08-25T07:58:43.705Z,32.85
2022-08-25T07:59:43.685Z,32.81
2022-08-25T08:00:43.676Z,32.40
2022-08-25T08:01:43.691Z,31.94
2022-08-25T08:02:43.693Z,31.53
2022-08-25T08:03:50.317Z,31.18
2022-08-25T08:04:44.625Z,30.83
2022-08-25T08:05:43.595Z,31.00
2022-08-25T08:06:43.642Z,31.37
2022-08-25T08:07:43.976Z,31.67
2022-08-25T08:08:43.928Z,31.88
2022-08-25T08:09:43.565Z,32.07
2022-08-25T08:11:04.154Z,32.19
2022-08-25T08:11:53.641Z,32.34
2022-08-25T08:12:44.550Z,32.49
2022-08-25T08:13:43.532Z,32.24
2022-08-25T08:14:44.881Z,32.06
2022-08-25T08:15:43.539Z,31.74
2022-08-25T08:16:43.496Z,31.37
2022-08-25T08:17:43.446Z,31.05
2022-08-25T08:18:43.438Z,30.86
2022-08-25T08:19:45.352Z,30.96
2022-08-25T08:20:43.450Z,31.22
2022-08-25T08:21:43.392Z,31.54
2022-08-25T08:22:43.398Z,31.84
2022-08-25T08:23:43.401Z,32.02
2022-08-25T08:24:44.858Z,32.16
2022-08-25T08:25:44.349Z,32.25
2022-08-25T08:26:57.736Z,32.27
2022-08-25T08:27:44.339Z,32.27
2022-08-25T08:28:43.330Z,32.36
2022-08-25T08:29:43.302Z,32.39
2022-08-25T08:30:53.336Z,32.54
2022-08-25T08:31:48.698Z,32.78
2022-08-25T08:33:08.243Z,32.99
2022-08-25T08:33:44.246Z,32.85
2022-08-25T08:34:43.240Z,32.78
2022-08-25T08:35:43.234Z,32.61
2022-08-25T08:36:43.203Z,32.58
2022-08-25T08:37:43.194Z,32.25
2022-08-25T08:38:43.203Z,31.97
2022-08-25T08:39:43.198Z,31.57
2022-08-25T08:40:43.162Z,31.30
2022-08-25T08:42:07.683Z,31.05
2022-08-25T08:42:46.767Z,31.04
2022-08-25T08:43:43.126Z,30.94
2022-08-25T08:44:43.124Z,30.82
2022-08-25T08:45:43.956Z,30.86
2022-08-25T08:46:43.144Z,31.04
2022-08-25T08:47:43.073Z,31.19
2022-08-25T08:48:43.062Z,31.47
2022-08-25T08:49:43.045Z,31.78
2022-08-25T08:50:43.024Z,31.98
2022-08-25T08:51:43.015Z,31.82
2022-08-25T08:52:43.040Z,31.47
2022-08-25T08:53:42.993Z,31.23
2022-08-25T08:54:42.984Z,31.27
2022-08-25T08:55:42.982Z,31.10
2022-08-25T08:56:45.231Z,31.12
2022-08-25T08:57:43.005Z,31.04
2022-08-25T08:58:42.925Z,31.20
2022-08-25T08:59:42.934Z,31.37
2022-08-25T09:00:42.903Z,31.27
2022-08-25T09:01:43.918Z,31.27
2022-08-25T09:02:52.052Z,31.41
2022-08-25T09:03:43.877Z,31.53
2022-08-25T09:04:42.865Z,31.71
2022-08-25T09:05:46.595Z,31.71
2022-08-25T09:06:42.819Z,31.82
2022-08-25T09:07:42.810Z,31.72
2022-08-25T09:08:44.464Z,31.78
2022-08-25T09:09:42.780Z,31.95
2022-08-25T09:10:42.779Z,32.07
2022-08-25T09:11:42.757Z,32.13
2022-08-25T09:12:48.241Z,31.99
2022-08-25T09:13:43.760Z,31.91
2022-08-25T09:14:42.751Z,31.72
2022-08-25T09:15:42.735Z,31.65
2022-08-25T09:16:42.717Z,31.60
2022-08-25T09:17:42.672Z,31.62
2022-08-25T09:18:50.968Z,31.49
2022-08-25T09:19:43.677Z,31.42
2022-08-25T09:20:42.641Z,31.40
2022-08-25T09:21:42.633Z,31.40
2022-08-25T09:22:42.620Z,31.49
2022-08-25T09:23:42.612Z,31.64
2022-08-25T09:24:42.593Z,31.82
2022-08-25T09:25:53.153Z,31.72
2022-08-25T09:26:43.563Z,31.57
2022-08-25T09:27:42.553Z,31.60
2022-08-25T09:28:42.577Z,31.68
2022-08-25T09:29:42.539Z,31.46
2022-08-25T09:30:42.521Z,31.22
2022-08-25T09:31:42.569Z,31.27
2022-08-25T09:32:42.485Z,31.38
2022-08-25T09:33:43.502Z,31.53
2022-08-25T09:34:42.462Z,31.60
2022-08-25T09:35:42.445Z,31.68
2022-08-25T09:36:42.439Z,31.72
2022-08-25T09:37:42.433Z,31.79
2022-08-25T09:38:42.425Z,31.91
2022-08-25T09:39:42.416Z,32.06
2022-08-25T09:40:42.572Z,32.12
2022-08-25T09:41:42.389Z,32.13
2022-08-25T09:42:42.366Z,32.13
2022-08-25T09:43:42.367Z,32.12
2022-08-25T09:44:42.347Z,32.16
2022-08-25T09:45:42.603Z,32.22
2022-08-25T09:46:42.347Z,32.13
2022-08-25T09:47:42.308Z,32.07
2022-08-25T09:48:42.301Z,32.16
2022-08-25T09:49:42.280Z,32.12
2022-08-25T09:50:46.688Z,31.95
2022-08-25T09:51:43.324Z,31.90
2022-08-25T09:52:42.237Z,31.72
2022-08-25T09:53:42.249Z,31.67
2022-08-25T09:54:44.265Z,31.68
2022-08-25T09:55:42.199Z,31.65
2022-08-25T09:56:42.178Z,31.65
2022-08-25T09:57:42.179Z,31.74
2022-08-25T09:58:42.161Z,31.67
2022-08-25T09:59:42.148Z,31.59
2022-08-25T10:00:43.170Z,31.59
2022-08-25T10:01:42.168Z,31.65
2022-08-25T10:02:42.111Z,31.67
2022-08-25T10:03:42.120Z,31.64
2022-08-25T10:04:42.110Z,31.68
2022-08-25T10:05:42.089Z,31.68
2022-08-25T10:06:42.068Z,31.69
2022-08-25T10:07:42.060Z,31.62
2022-08-25T10:08:42.079Z,31.60
2022-08-25T10:09:42.023Z,31.59
2022-08-25T10:10:42.100Z,31.59
2022-08-25T10:11:41.990Z,31.49
2022-08-25T10:12:42.963Z,31.23
2022-08-25T10:13:42.003Z,31.15
2022-08-25T10:14:44.289Z,31.25
2022-08-25T10:15:41.986Z,31.35
2022-08-25T10:16:41.947Z,31.38
2022-08-25T10:17:42.921Z,31.41
2022-08-25T10:18:41.893Z,31.54
2022-08-25T10:19:41.895Z,31.62
2022-08-25T10:20:44.556Z,31.68
2022-08-25T10:21:41.863Z,31.75
2022-08-25T10:22:41.904Z,31.82
2022-08-25T10:23:41.860Z,31.85
2022-08-25T10:24:44.222Z,31.87
2022-08-25T10:25:41.814Z,31.92
2022-08-25T10:26:42.815Z,32.03
2022-08-25T10:27:41.821Z,32.12
2022-08-25T10:28:41.764Z,32.14
2022-08-25T10:29:41.770Z,32.16
2022-08-25T10:30:41.850Z,32.16
2022-08-25T10:31:41.735Z,32.16
2022-08-25T10:32:41.731Z,32.13
2022-08-25T10:33:41.757Z,32.22
2022-08-25T10:34:44.481Z,32.16
2022-08-25T10:35:41.674Z,32.10
2022-08-25T10:36:41.667Z,32.02
2022-08-25T10:37:42.693Z,32.06
2022-08-25T10:38:43.150Z,32.12
2022-08-25T10:39:41.645Z,32.17
2022-08-25T10:40:41.668Z,32.28
2022-08-25T10:41:41.637Z,32.35
2022-08-25T10:42:42.739Z,32.43
2022-08-25T10:43:41.584Z,32.49
2022-08-25T10:44:41.583Z,32.51
2022-08-25T10:45:41.576Z,32.40
2022-08-25T10:46:41.641Z,32.40
2022-08-25T10:47:41.585Z,32.50
2022-08-25T10:48:41.525Z,32.65
2022-08-25T10:49:41.527Z,32.80
2022-08-25T10:50:45.371Z,32.88
2022-08-25T10:51:41.505Z,33.03
2022-08-25T10:52:41.487Z,33.11
2022-08-25T10:53:41.458Z,33.02
2022-08-25T10:54:41.432Z,32.87
2022-08-25T10:55:41.430Z,32.68
2022-08-25T10:56:41.436Z,32.65
2022-08-25T10:57:41.467Z,32.62
2022-08-25T10:58:41.390Z,32.56
2022-08-25T10:59:41.387Z,32.47
2022-08-25T11:00:41.385Z,32.43
2022-08-25T11:01:44.047Z,32.28
2022-08-25T11:02:41.577Z,32.17
2022-08-25T11:03:41.322Z,32.19
2022-08-25T11:04:42.157Z,32.27
2022-08-25T11:05:41.384Z,32.27
2022-08-25T11:06:41.310Z,32.25
2022-08-25T11:07:41.302Z,32.22
2022-08-25T11:08:41.249Z,32.31
2022-08-25T11:09:41.241Z,32.28
2022-08-25T11:10:41.233Z,32.36
2022-08-25T11:11:41.225Z,32.43
2022-08-25T11:12:41.210Z,32.49
2022-08-25T11:13:41.201Z,32.50
2022-08-25T11:14:41.195Z,32.41
2022-08-25T11:15:50.291Z,32.35
2022-08-25T11:16:42.170Z,32.32
2022-08-25T11:17:41.939Z,32.34
2022-08-25T11:18:41.124Z,32.39
2022-08-25T11:19:41.125Z,32.46
2022-08-25T11:20:41.104Z,32.54
2022-08-25T11:21:41.111Z,32.63
2022-08-25T11:22:41.121Z,32.65
2022-08-25T11:23:41.094Z,32.56
2022-08-25T11:24:41.057Z,32.51
2022-08-25T11:25:41.064Z,32.49
2022-08-25T11:26:41.042Z,32.53
2022-08-25T11:27:41.042Z,32.54
2022-08-25T11:28:40.993Z,32.62
2022-08-25T11:29:40.983Z,32.73
2022-08-25T11:30:41.037Z,32.77
2022-08-25T11:31:40.964Z,32.72
2022-08-25T11:32:40.983Z,32.62
2022-08-25T11:33:40.942Z,32.50
2022-08-25T11:34:43.705Z,32.47
2022-08-25T11:35:40.925Z,32.49
2022-08-25T11:36:40.895Z,32.59
2022-08-25T11:37:40.897Z,32.66
2022-08-25T11:38:40.874Z,32.65
2022-08-25T11:39:40.884Z,32.56
2022-08-25T11:40:40.854Z,32.49
2022-08-25T11:41:40.834Z,32.51
2022-08-25T11:42:40.833Z,32.63
2022-08-25T11:43:40.818Z,32.77
2022-08-25T11:44:51.808Z,32.91
2022-08-25T11:45:41.828Z,32.93
2022-08-25T11:46:40.798Z,32.88
2022-08-25T11:47:40.783Z,32.73
2022-08-25T11:48:40.740Z,32.59
2022-08-25T11:49:40.732Z,32.49
2022-08-25T11:50:40.708Z,32.35
2022-08-25T11:51:40.707Z,32.28
2022-08-25T11:52:40.718Z,32.21
2022-08-25T11:53:41.762Z,32.27
2022-08-25T11:54:41.667Z,32.16
2022-08-25T11:55:40.675Z,32.09
2022-08-25T11:56:40.641Z,32.09
2022-08-25T11:57:40.655Z,31.99
2022-08-25T11:58:40.869Z,31.90
2022-08-25T11:59:40.607Z,31.79
2022-08-25T12:00:41.043Z,31.69
2022-08-25T12:01:40.591Z,31.62
2022-08-25T12:02:40.559Z,31.52
2022-08-25T12:03:40.564Z,31.56
2022-08-25T12:04:53.009Z,31.62
2022-08-25T12:05:40.559Z,31.75
2022-08-25T12:06:40.514Z,31.85
2022-08-25T12:07:40.494Z,31.90
2022-08-25T12:08:40.481Z,31.90
2022-08-25T12:09:40.465Z,31.92
2022-08-25T12:10:40.455Z,32.02
2022-08-25T12:11:41.703Z,32.12
2022-08-25T12:12:40.425Z,32.22
2022-08-25T12:13:40.416Z,32.31
2022-08-25T12:14:40.414Z,32.41
2022-08-25T12:15:40.395Z,32.47
2022-08-25T12:16:40.465Z,32.50
2022-08-25T12:17:40.386Z,32.58
2022-08-25T12:18:45.845Z,32.65
2022-08-25T12:19:41.336Z,32.71
2022-08-25T12:20:40.345Z,32.73
2022-08-25T12:21:40.345Z,32.73
2022-08-25T12:22:40.307Z,32.76
2022-08-25T12:23:45.029Z,32.72
2022-08-25T12:24:41.288Z,32.68
2022-08-25T12:25:43.484Z,32.66
2022-08-25T12:26:40.277Z,32.56
2022-08-25T12:27:40.241Z,32.36
2022-08-25T12:28:40.230Z,32.14
2022-08-25T12:29:40.249Z,32.02
2022-08-25T12:30:40.241Z,31.97
2022-08-25T12:31:40.213Z,31.87
2022-08-25T12:32:40.171Z,31.74
2022-08-25T12:33:40.164Z,31.71
2022-08-25T12:34:40.154Z,31.79
2022-08-25T12:35:40.162Z,31.91
2022-08-25T12:36:40.130Z,32.02
2022-08-25T12:37:40.111Z,32.13
2022-08-25T12:38:43.316Z,32.17
2022-08-25T12:39:40.089Z,32.09
2022-08-25T12:40:40.087Z,32.10
2022-08-25T12:41:40.072Z,32.13
2022-08-25T12:42:40.043Z,32.16
2022-08-25T12:43:40.042Z,32.21
2022-08-25T12:44:40.015Z,32.25
2022-08-25T12:45:40.046Z,32.28
2022-08-25T12:46:40.014Z,32.36
2022-08-25T12:47:43.008Z,32.40
2022-08-25T12:48:39.972Z,32.46
2022-08-25T12:49:39.956Z,32.47
2022-08-25T12:50:39.944Z,32.56
2022-08-25T12:51:39.923Z,32.63
2022-08-25T12:52:39.935Z,32.61